sensor_id;sensor_type;location;lat;lon;timestamp;P1;durP1;ratioP1;P2;durP2;ratioP2
34765;SDS011;20984;43.508;1.504;2022-12-24T00:02:11;17.55;;;12.25;;
34765;SDS011;20984;43.508;1.504;2022-12-24T00:04:37;20.23;;;14.05;;
34765;SDS011;20984;43.508;1.504;2022-12-24T00:07:02;19.65;;;15.60;;
34765;SDS011;20984;43.508;1.504;2022-12-24T00:09:29;20.48;;;14.63;;
34765;SDS011;20984;43.508;1.504;2022-12-24T00:11:54;25.25;;;15.50;;
34765;SDS011;20984;43.508;1.504;2022-12-24T00:14:20;26.38;;;17.05;;
34765;SDS011;20984;43.508;1.504;2022-12-24T00:16:46;24.40;;;18.92;;
34765;SDS011;20984;43.508;1.504;2022-12-24T00:19:12;30.70;;;22.73;;
34765;SDS011;20984;43.508;1.504;2022-12-24T00:21:38;30.23;;;22.10;;
34765;SDS011;20984;43.508;1.504;2022-12-24T00:24:04;25.30;;;15.98;;
34765;SDS011;20984;43.508;1.504;2022-12-24T00:26:31;23.92;;;15.55;;
34765;SDS011;20984;43.508;1.504;2022-12-24T00:28:57;19.90;;;16.02;;
34765;SDS011;20984;43.508;1.504;2022-12-24T00:31:23;20.25;;;15.48;;
34765;SDS011;20984;43.508;1.504;2022-12-24T00:33:49;19.63;;;13.38;;
34765;SDS011;20984;43.508;1.504;2022-12-24T00:36:15;18.20;;;12.38;;
34765;SDS011;20984;43.508;1.504;2022-12-24T00:38:42;22.63;;;14.82;;
34765;SDS011;20984;43.508;1.504;2022-12-24T00:41:09;20.85;;;14.40;;
34765;SDS011;20984;43.508;1.504;2022-12-24T00:43:53;19.33;;;14.00;;
34765;SDS011;20984;43.508;1.504;2022-12-24T00:46:25;18.15;;;13.68;;
34765;SDS011;20984;43.508;1.504;2022-12-24T00:48:52;16.35;;;12.63;;
34765;SDS011;20984;43.508;1.504;2022-12-24T00:51:19;17.50;;;10.93;;
34765;SDS011;20984;43.508;1.504;2022-12-24T00:53:45;19.40;;;12.90;;
34765;SDS011;20984;43.508;1.504;2022-12-24T00:56:12;15.93;;;12.20;;
34765;SDS011;20984;43.508;1.504;2022-12-24T00:58:38;22.67;;;12.63;;
34765;SDS011;20984;43.508;1.504;2022-12-24T01:01:03;16.83;;;11.68;;
34765;SDS011;20984;43.508;1.504;2022-12-24T01:03:30;17.80;;;12.73;;
34765;SDS011;20984;43.508;1.504;2022-12-24T01:06:06;18.05;;;11.73;;
34765;SDS011;20984;43.508;1.504;2022-12-24T01:08:34;30.90;;;12.57;;
34765;SDS011;20984;43.508;1.504;2022-12-24T01:11:01;17.88;;;12.10;;
34765;SDS011;20984;43.508;1.504;2022-12-24T01:13:28;23.65;;;11.85;;
34765;SDS011;20984;43.508;1.504;2022-12-24T01:15:54;19.45;;;10.63;;
34765;SDS011;20984;43.508;1.504;2022-12-24T01:18:20;14.15;;;11.23;;
34765;SDS011;20984;43.508;1.504;2022-12-24T01:20:54;14.13;;;9.90;;
34765;SDS011;20984;43.508;1.504;2022-12-24T01:23:25;12.02;;;9.35;;
34765;SDS011;20984;43.508;1.504;2022-12-24T01:25:51;19.65;;;10.98;;
34765;SDS011;20984;43.508;1.504;2022-12-24T01:28:17;15.32;;;8.70;;
34765;SDS011;20984;43.508;1.504;2022-12-24T01:30:44;17.88;;;12.63;;
34765;SDS011;20984;43.508;1.504;2022-12-24T01:33:09;17.20;;;11.00;;
34765;SDS011;20984;43.508;1.504;2022-12-24T01:35:39;19.80;;;11.05;;
34765;SDS011;20984;43.508;1.504;2022-12-24T01:38:05;17.48;;;11.00;;
34765;SDS011;20984;43.508;1.504;2022-12-24T01:40:32;16.63;;;10.40;;
34765;SDS011;20984;43.508;1.504;2022-12-24T01:43:16;16.00;;;10.15;;
34765;SDS011;20984;43.508;1.504;2022-12-24T01:45:54;16.88;;;10.80;;
34765;SDS011;20984;43.508;1.504;2022-12-24T01:48:35;15.18;;;11.90;;
34765;SDS011;20984;43.508;1.504;2022-12-24T01:54:10;15.65;;;11.60;;
34765;SDS011;20984;43.508;1.504;2022-12-24T01:56:43;17.10;;;13.10;;
34765;SDS011;20984;43.508;1.504;2022-12-24T01:59:11;18.13;;;13.20;;
34765;SDS011;20984;43.508;1.504;2022-12-24T02:01:40;24.45;;;14.05;;
34765;SDS011;20984;43.508;1.504;2022-12-24T02:06:58;20.73;;;15.15;;
34765;SDS011;20984;43.508;1.504;2022-12-24T02:09:25;19.92;;;14.40;;
34765;SDS011;20984;43.508;1.504;2022-12-24T02:11:51;20.42;;;15.75;;
34765;SDS011;20984;43.508;1.504;2022-12-24T02:14:17;24.48;;;14.45;;
34765;SDS011;20984;43.508;1.504;2022-12-24T02:25:47;22.40;;;17.50;;
34765;SDS011;20984;43.508;1.504;2022-12-24T02:31:24;23.30;;;15.45;;
34765;SDS011;20984;43.508;1.504;2022-12-24T02:36:54;22.20;;;15.83;;
34765;SDS011;20984;43.508;1.504;2022-12-24T02:39:38;26.23;;;16.25;;
34765;SDS011;20984;43.508;1.504;2022-12-24T02:42:11;24.90;;;16.80;;
34765;SDS011;20984;43.508;1.504;2022-12-24T02:44:48;22.08;;;15.50;;
34765;SDS011;20984;43.508;1.504;2022-12-24T02:47:26;27.67;;;17.17;;
34765;SDS011;20984;43.508;1.504;2022-12-24T02:49:52;24.27;;;15.82;;
34765;SDS011;20984;43.508;1.504;2022-12-24T02:52:35;22.27;;;16.30;;
34765;SDS011;20984;43.508;1.504;2022-12-24T03:01:35;21.02;;;15.63;;
34765;SDS011;20984;43.508;1.504;2022-12-24T03:04:16;20.45;;;15.77;;
34765;SDS011;20984;43.508;1.504;2022-12-24T03:09:50;21.80;;;16.05;;
34765;SDS011;20984;43.508;1.504;2022-12-24T03:12:27;32.90;;;17.53;;
34765;SDS011;20984;43.508;1.504;2022-12-24T03:14:58;23.73;;;16.33;;
34765;SDS011;20984;43.508;1.504;2022-12-24T03:17:24;30.10;;;18.58;;
34765;SDS011;20984;43.508;1.504;2022-12-24T03:19:51;25.23;;;15.50;;
34765;SDS011;20984;43.508;1.504;2022-12-24T03:22:19;20.58;;;14.73;;
34765;SDS011;20984;43.508;1.504;2022-12-24T03:24:47;25.60;;;16.42;;
34765;SDS011;20984;43.508;1.504;2022-12-24T03:27:13;23.88;;;15.80;;
34765;SDS011;20984;43.508;1.504;2022-12-24T03:29:40;21.02;;;15.25;;
34765;SDS011;20984;43.508;1.504;2022-12-24T03:32:06;22.42;;;15.02;;
34765;SDS011;20984;43.508;1.504;2022-12-24T03:34:32;21.17;;;14.30;;
34765;SDS011;20984;43.508;1.504;2022-12-24T03:36:58;20.77;;;14.00;;
34765;SDS011;20984;43.508;1.504;2022-12-24T03:39:24;19.25;;;10.93;;
34765;SDS011;20984;43.508;1.504;2022-12-24T03:41:50;16.85;;;12.07;;
34765;SDS011;20984;43.508;1.504;2022-12-24T03:44:16;16.73;;;11.82;;
34765;SDS011;20984;43.508;1.504;2022-12-24T03:46:42;17.00;;;10.32;;
34765;SDS011;20984;43.508;1.504;2022-12-24T03:49:08;19.52;;;12.05;;
34765;SDS011;20984;43.508;1.504;2022-12-24T03:51:33;18.23;;;11.48;;
34765;SDS011;20984;43.508;1.504;2022-12-24T03:53:59;19.42;;;12.05;;
34765;SDS011;20984;43.508;1.504;2022-12-24T03:56:25;22.98;;;12.65;;
34765;SDS011;20984;43.508;1.504;2022-12-24T03:58:51;20.75;;;13.13;;
34765;SDS011;20984;43.508;1.504;2022-12-24T04:01:17;17.50;;;9.80;;
34765;SDS011;20984;43.508;1.504;2022-12-24T04:03:43;17.60;;;10.65;;
34765;SDS011;20984;43.508;1.504;2022-12-24T04:06:13;15.82;;;12.90;;
34765;SDS011;20984;43.508;1.504;2022-12-24T04:08:41;14.13;;;11.20;;
34765;SDS011;20984;43.508;1.504;2022-12-24T04:11:09;24.77;;;12.90;;
34765;SDS011;20984;43.508;1.504;2022-12-24T04:13:35;19.02;;;12.20;;
34765;SDS011;20984;43.508;1.504;2022-12-24T04:16:06;14.20;;;10.38;;
34765;SDS011;20984;43.508;1.504;2022-12-24T04:18:34;14.98;;;10.27;;
34765;SDS011;20984;43.508;1.504;2022-12-24T04:21:00;15.38;;;8.48;;
34765;SDS011;20984;43.508;1.504;2022-12-24T04:23:29;17.83;;;10.45;;
34765;SDS011;20984;43.508;1.504;2022-12-24T04:25:55;15.93;;;10.70;;
34765;SDS011;20984;43.508;1.504;2022-12-24T04:28:23;15.65;;;10.82;;
34765;SDS011;20984;43.508;1.504;2022-12-24T04:30:49;17.52;;;12.15;;
34765;SDS011;20984;43.508;1.504;2022-12-24T04:33:15;17.98;;;10.95;;
34765;SDS011;20984;43.508;1.504;2022-12-24T04:35:41;12.00;;;9.70;;
34765;SDS011;20984;43.508;1.504;2022-12-24T04:38:07;13.88;;;9.23;;
34765;SDS011;20984;43.508;1.504;2022-12-24T04:40:34;14.00;;;8.82;;
34765;SDS011;20984;43.508;1.504;2022-12-24T04:43:00;20.67;;;9.40;;
34765;SDS011;20984;43.508;1.504;2022-12-24T04:45:26;11.10;;;8.35;;
34765;SDS011;20984;43.508;1.504;2022-12-24T04:47:52;16.70;;;10.10;;
34765;SDS011;20984;43.508;1.504;2022-12-24T04:50:18;18.02;;;9.68;;
34765;SDS011;20984;43.508;1.504;2022-12-24T04:52:44;16.73;;;10.40;;
34765;SDS011;20984;43.508;1.504;2022-12-24T04:55:09;15.82;;;10.05;;
34765;SDS011;20984;43.508;1.504;2022-12-24T04:57:35;11.65;;;9.45;;
34765;SDS011;20984;43.508;1.504;2022-12-24T05:00:03;16.63;;;8.68;;
34765;SDS011;20984;43.508;1.504;2022-12-24T05:02:29;12.10;;;8.32;;
34765;SDS011;20984;43.508;1.504;2022-12-24T05:04:55;16.10;;;9.50;;
34765;SDS011;20984;43.508;1.504;2022-12-24T05:07:21;15.32;;;8.48;;
34765;SDS011;20984;43.508;1.504;2022-12-24T05:09:47;16.13;;;9.90;;
34765;SDS011;20984;43.508;1.504;2022-12-24T05:12:13;13.25;;;8.38;;
34765;SDS011;20984;43.508;1.504;2022-12-24T05:14:39;11.02;;;9.00;;
34765;SDS011;20984;43.508;1.504;2022-12-24T05:17:05;14.23;;;8.40;;
34765;SDS011;20984;43.508;1.504;2022-12-24T05:19:31;11.98;;;9.27;;
34765;SDS011;20984;43.508;1.504;2022-12-24T05:21:57;13.35;;;9.45;;
34765;SDS011;20984;43.508;1.504;2022-12-24T05:24:41;13.43;;;8.85;;
34765;SDS011;20984;43.508;1.504;2022-12-24T05:27:25;17.65;;;9.95;;
34765;SDS011;20984;43.508;1.504;2022-12-24T05:29:51;11.65;;;8.65;;
34765;SDS011;20984;43.508;1.504;2022-12-24T05:32:17;21.50;;;12.95;;
34765;SDS011;20984;43.508;1.504;2022-12-24T05:34:43;16.98;;;10.82;;
34765;SDS011;20984;43.508;1.504;2022-12-24T05:37:09;13.73;;;10.05;;
34765;SDS011;20984;43.508;1.504;2022-12-24T05:39:35;15.70;;;10.43;;
34765;SDS011;20984;43.508;1.504;2022-12-24T05:42:00;14.13;;;10.25;;
34765;SDS011;20984;43.508;1.504;2022-12-24T05:44:26;14.82;;;9.52;;
34765;SDS011;20984;43.508;1.504;2022-12-24T05:46:52;12.43;;;9.35;;
34765;SDS011;20984;43.508;1.504;2022-12-24T05:49:18;12.73;;;9.98;;
34765;SDS011;20984;43.508;1.504;2022-12-24T05:51:44;17.77;;;9.88;;
34765;SDS011;20984;43.508;1.504;2022-12-24T05:54:10;15.43;;;10.93;;
34765;SDS011;20984;43.508;1.504;2022-12-24T05:56:35;18.98;;;9.98;;
34765;SDS011;20984;43.508;1.504;2022-12-24T05:59:01;17.83;;;11.73;;
34765;SDS011;20984;43.508;1.504;2022-12-24T06:01:27;16.60;;;11.68;;
34765;SDS011;20984;43.508;1.504;2022-12-24T06:03:53;21.17;;;12.40;;
34765;SDS011;20984;43.508;1.504;2022-12-24T06:06:23;21.30;;;12.10;;
34765;SDS011;20984;43.508;1.504;2022-12-24T06:08:51;18.40;;;10.67;;
34765;SDS011;20984;43.508;1.504;2022-12-24T06:11:20;19.75;;;11.48;;
34765;SDS011;20984;43.508;1.504;2022-12-24T06:13:47;20.13;;;11.88;;
34765;SDS011;20984;43.508;1.504;2022-12-24T06:16:14;20.52;;;12.60;;
34765;SDS011;20984;43.508;1.504;2022-12-24T06:18:43;19.17;;;12.60;;
34765;SDS011;20984;43.508;1.504;2022-12-24T06:21:09;20.48;;;12.45;;
34765;SDS011;20984;43.508;1.504;2022-12-24T06:23:36;23.38;;;12.60;;
34765;SDS011;20984;43.508;1.504;2022-12-24T06:26:04;18.23;;;12.20;;
34765;SDS011;20984;43.508;1.504;2022-12-24T06:28:32;17.80;;;12.25;;
34765;SDS011;20984;43.508;1.504;2022-12-24T06:31:00;16.42;;;12.30;;
34765;SDS011;20984;43.508;1.504;2022-12-24T06:33:27;19.25;;;12.82;;
34765;SDS011;20984;43.508;1.504;2022-12-24T06:35:54;15.85;;;12.18;;
34765;SDS011;20984;43.508;1.504;2022-12-24T06:38:20;15.43;;;11.68;;
34765;SDS011;20984;43.508;1.504;2022-12-24T06:40:46;15.13;;;11.38;;
34765;SDS011;20984;43.508;1.504;2022-12-24T06:43:12;17.05;;;11.80;;
34765;SDS011;20984;43.508;1.504;2022-12-24T06:45:39;18.88;;;11.90;;
34765;SDS011;20984;43.508;1.504;2022-12-24T06:48:08;12.73;;;10.45;;
34765;SDS011;20984;43.508;1.504;2022-12-24T06:50:34;16.50;;;11.50;;
34765;SDS011;20984;43.508;1.504;2022-12-24T06:53:00;13.93;;;10.68;;
34765;SDS011;20984;43.508;1.504;2022-12-24T06:55:26;16.10;;;11.80;;
34765;SDS011;20984;43.508;1.504;2022-12-24T06:57:52;19.77;;;12.10;;
34765;SDS011;20984;43.508;1.504;2022-12-24T07:00:18;17.77;;;11.93;;
34765;SDS011;20984;43.508;1.504;2022-12-24T07:02:46;15.13;;;11.45;;
34765;SDS011;20984;43.508;1.504;2022-12-24T07:05:12;21.40;;;11.70;;
34765;SDS011;20984;43.508;1.504;2022-12-24T07:07:39;18.75;;;12.77;;
34765;SDS011;20984;43.508;1.504;2022-12-24T07:10:07;15.52;;;11.45;;
34765;SDS011;20984;43.508;1.504;2022-12-24T07:12:35;15.90;;;11.48;;
34765;SDS011;20984;43.508;1.504;2022-12-24T07:15:01;20.80;;;13.23;;
34765;SDS011;20984;43.508;1.504;2022-12-24T07:17:28;15.45;;;11.35;;
34765;SDS011;20984;43.508;1.504;2022-12-24T07:19:54;19.63;;;11.52;;
34765;SDS011;20984;43.508;1.504;2022-12-24T07:22:19;16.23;;;11.38;;
34765;SDS011;20984;43.508;1.504;2022-12-24T07:24:45;19.05;;;11.88;;
34765;SDS011;20984;43.508;1.504;2022-12-24T07:27:11;14.10;;;10.98;;
34765;SDS011;20984;43.508;1.504;2022-12-24T07:29:37;16.13;;;11.15;;
34765;SDS011;20984;43.508;1.504;2022-12-24T07:32:04;17.27;;;10.50;;
34765;SDS011;20984;43.508;1.504;2022-12-24T07:34:30;16.77;;;10.75;;
34765;SDS011;20984;43.508;1.504;2022-12-24T07:36:56;15.20;;;10.23;;
34765;SDS011;20984;43.508;1.504;2022-12-24T07:39:22;14.82;;;10.77;;
34765;SDS011;20984;43.508;1.504;2022-12-24T07:41:48;14.98;;;10.38;;
34765;SDS011;20984;43.508;1.504;2022-12-24T07:44:14;17.60;;;10.02;;
34765;SDS011;20984;43.508;1.504;2022-12-24T07:46:41;17.85;;;10.07;;
34765;SDS011;20984;43.508;1.504;2022-12-24T07:49:08;16.52;;;10.25;;
34765;SDS011;20984;43.508;1.504;2022-12-24T07:51:34;14.50;;;11.63;;
34765;SDS011;20984;43.508;1.504;2022-12-24T07:54:00;15.05;;;10.48;;
34765;SDS011;20984;43.508;1.504;2022-12-24T07:56:28;15.38;;;11.65;;
34765;SDS011;20984;43.508;1.504;2022-12-24T07:58:55;16.38;;;11.82;;
34765;SDS011;20984;43.508;1.504;2022-12-24T08:01:21;19.40;;;10.90;;
34765;SDS011;20984;43.508;1.504;2022-12-24T08:03:47;16.40;;;11.10;;
34765;SDS011;20984;43.508;1.504;2022-12-24T08:06:15;15.02;;;11.07;;
34765;SDS011;20984;43.508;1.504;2022-12-24T08:08:41;16.42;;;12.50;;
34765;SDS011;20984;43.508;1.504;2022-12-24T08:11:07;17.25;;;11.80;;
34765;SDS011;20984;43.508;1.504;2022-12-24T08:13:33;14.90;;;11.80;;
34765;SDS011;20984;43.508;1.504;2022-12-24T08:15:59;14.70;;;10.57;;
34765;SDS011;20984;43.508;1.504;2022-12-24T08:18:24;24.92;;;11.90;;
34765;SDS011;20984;43.508;1.504;2022-12-24T08:20:50;13.30;;;10.20;;
34765;SDS011;20984;43.508;1.504;2022-12-24T08:23:16;14.20;;;10.40;;
34765;SDS011;20984;43.508;1.504;2022-12-24T08:25:43;14.55;;;10.90;;
34765;SDS011;20984;43.508;1.504;2022-12-24T08:28:11;13.55;;;10.27;;
34765;SDS011;20984;43.508;1.504;2022-12-24T08:30:37;12.00;;;10.30;;
34765;SDS011;20984;43.508;1.504;2022-12-24T08:33:04;15.70;;;11.35;;
34765;SDS011;20984;43.508;1.504;2022-12-24T08:35:30;15.55;;;12.55;;
34765;SDS011;20984;43.508;1.504;2022-12-24T08:37:56;16.35;;;13.48;;
34765;SDS011;20984;43.508;1.504;2022-12-24T08:40:21;17.52;;;13.13;;
34765;SDS011;20984;43.508;1.504;2022-12-24T08:42:47;19.08;;;12.18;;
34765;SDS011;20984;43.508;1.504;2022-12-24T08:45:13;18.38;;;13.18;;
34765;SDS011;20984;43.508;1.504;2022-12-24T08:47:39;17.33;;;13.52;;
34765;SDS011;20984;43.508;1.504;2022-12-24T08:50:05;15.55;;;12.27;;
34765;SDS011;20984;43.508;1.504;2022-12-24T08:52:32;23.20;;;12.75;;
34765;SDS011;20984;43.508;1.504;2022-12-24T08:54:58;23.27;;;13.32;;
34765;SDS011;20984;43.508;1.504;2022-12-24T08:57:23;18.52;;;13.07;;
34765;SDS011;20984;43.508;1.504;2022-12-24T08:59:49;14.95;;;12.65;;
34765;SDS011;20984;43.508;1.504;2022-12-24T09:02:15;16.08;;;13.25;;
34765;SDS011;20984;43.508;1.504;2022-12-24T09:04:41;18.92;;;12.85;;
34765;SDS011;20984;43.508;1.504;2022-12-24T09:07:08;18.90;;;12.75;;
34765;SDS011;20984;43.508;1.504;2022-12-24T09:09:34;19.58;;;13.20;;
34765;SDS011;20984;43.508;1.504;2022-12-24T09:12:00;21.13;;;13.45;;
34765;SDS011;20984;43.508;1.504;2022-12-24T09:14:28;18.35;;;13.63;;
34765;SDS011;20984;43.508;1.504;2022-12-24T09:16:54;18.65;;;13.93;;
34765;SDS011;20984;43.508;1.504;2022-12-24T09:19:20;15.60;;;12.82;;
34765;SDS011;20984;43.508;1.504;2022-12-24T09:21:45;18.10;;;11.77;;
34765;SDS011;20984;43.508;1.504;2022-12-24T09:24:11;20.02;;;11.73;;
34765;SDS011;20984;43.508;1.504;2022-12-24T09:26:39;14.35;;;11.10;;
34765;SDS011;20984;43.508;1.504;2022-12-24T09:29:05;15.70;;;10.57;;
34765;SDS011;20984;43.508;1.504;2022-12-24T09:31:31;17.23;;;10.52;;
34765;SDS011;20984;43.508;1.504;2022-12-24T09:33:57;15.70;;;9.90;;
34765;SDS011;20984;43.508;1.504;2022-12-24T09:36:23;10.95;;;8.88;;
34765;SDS011;20984;43.508;1.504;2022-12-24T09:38:49;11.85;;;8.38;;
34765;SDS011;20984;43.508;1.504;2022-12-24T09:47:28;13.23;;;9.48;;
34765;SDS011;20984;43.508;1.504;2022-12-24T09:50:04;16.17;;;9.65;;
34765;SDS011;20984;43.508;1.504;2022-12-24T09:52:54;13.35;;;8.52;;
34765;SDS011;20984;43.508;1.504;2022-12-24T09:55:28;13.85;;;8.75;;
34765;SDS011;20984;43.508;1.504;2022-12-24T09:57:58;12.35;;;8.63;;
34765;SDS011;20984;43.508;1.504;2022-12-24T10:00:28;13.60;;;9.70;;
34765;SDS011;20984;43.508;1.504;2022-12-24T10:02:56;11.85;;;8.00;;
34765;SDS011;20984;43.508;1.504;2022-12-24T10:05:46;12.32;;;8.82;;
34765;SDS011;20984;43.508;1.504;2022-12-24T10:11:01;11.73;;;7.20;;
34765;SDS011;20984;43.508;1.504;2022-12-24T10:16:19;15.05;;;7.75;;
34765;SDS011;20984;43.508;1.504;2022-12-24T10:19:10;11.65;;;6.85;;
34765;SDS011;20984;43.508;1.504;2022-12-24T10:24:22;13.10;;;7.75;;
34765;SDS011;20984;43.508;1.504;2022-12-24T10:27:05;14.70;;;7.40;;
34765;SDS011;20984;43.508;1.504;2022-12-24T10:29:41;10.60;;;7.70;;
34765;SDS011;20984;43.508;1.504;2022-12-24T10:32:14;13.80;;;6.22;;
34765;SDS011;20984;43.508;1.504;2022-12-24T10:34:59;9.65;;;6.78;;
34765;SDS011;20984;43.508;1.504;2022-12-24T10:37:30;15.60;;;6.85;;
34765;SDS011;20984;43.508;1.504;2022-12-24T10:39:57;10.40;;;6.00;;
34765;SDS011;20984;43.508;1.504;2022-12-24T10:42:26;8.63;;;6.30;;
34765;SDS011;20984;43.508;1.504;2022-12-24T10:45:03;10.80;;;5.80;;
34765;SDS011;20984;43.508;1.504;2022-12-24T10:47:35;13.88;;;6.55;;
34765;SDS011;20984;43.508;1.504;2022-12-24T10:50:04;10.15;;;6.28;;
34765;SDS011;20984;43.508;1.504;2022-12-24T10:52:39;12.50;;;6.30;;
34765;SDS011;20984;43.508;1.504;2022-12-24T10:57:44;7.90;;;5.22;;
34765;SDS011;20984;43.508;1.504;2022-12-24T11:00:22;8.40;;;6.43;;
34765;SDS011;20984;43.508;1.504;2022-12-24T11:02:49;9.35;;;5.80;;
34765;SDS011;20984;43.508;1.504;2022-12-24T11:08:28;11.70;;;5.97;;
34765;SDS011;20984;43.508;1.504;2022-12-24T11:11:00;8.38;;;4.88;;
34765;SDS011;20984;43.508;1.504;2022-12-24T11:15:58;7.43;;;5.07;;
34765;SDS011;20984;43.508;1.504;2022-12-24T11:18:25;10.60;;;5.65;;
34765;SDS011;20984;43.508;1.504;2022-12-24T11:20:51;7.97;;;5.47;;
34765;SDS011;20984;43.508;1.504;2022-12-24T11:23:17;8.43;;;5.05;;
34765;SDS011;20984;43.508;1.504;2022-12-24T11:25:47;6.18;;;4.47;;
34765;SDS011;20984;43.508;1.504;2022-12-24T11:28:22;9.32;;;4.78;;
34765;SDS011;20984;43.508;1.504;2022-12-24T11:31:01;7.28;;;4.70;;
34765;SDS011;20984;43.508;1.504;2022-12-24T11:33:29;6.45;;;4.38;;
34765;SDS011;20984;43.508;1.504;2022-12-24T11:35:56;9.57;;;4.35;;
34765;SDS011;20984;43.508;1.504;2022-12-24T11:38:26;8.27;;;4.38;;
34765;SDS011;20984;43.508;1.504;2022-12-24T11:41:04;6.85;;;4.47;;
34765;SDS011;20984;43.508;1.504;2022-12-24T11:43:42;5.97;;;3.97;;
34765;SDS011;20984;43.508;1.504;2022-12-24T11:49:03;7.47;;;5.15;;
34765;SDS011;20984;43.508;1.504;2022-12-24T11:51:35;9.02;;;4.75;;
34765;SDS011;20984;43.508;1.504;2022-12-24T11:54:11;10.93;;;4.72;;
34765;SDS011;20984;43.508;1.504;2022-12-24T11:56:48;8.25;;;3.97;;
34765;SDS011;20984;43.508;1.504;2022-12-24T12:04:41;7.50;;;4.60;;
34765;SDS011;20984;43.508;1.504;2022-12-24T12:07:17;8.30;;;3.97;;
34765;SDS011;20984;43.508;1.504;2022-12-24T12:09:55;10.00;;;5.07;;
34765;SDS011;20984;43.508;1.504;2022-12-24T12:12:46;8.25;;;4.65;;
34765;SDS011;20984;43.508;1.504;2022-12-24T12:15:27;6.35;;;4.60;;
34765;SDS011;20984;43.508;1.504;2022-12-24T12:18:06;5.63;;;4.38;;
34765;SDS011;20984;43.508;1.504;2022-12-24T12:23:15;5.45;;;4.25;;
34765;SDS011;20984;43.508;1.504;2022-12-24T12:28:22;7.57;;;3.47;;
34765;SDS011;20984;43.508;1.504;2022-12-24T12:31:04;5.70;;;3.20;;
34765;SDS011;20984;43.508;1.504;2022-12-24T12:33:38;7.85;;;3.70;;
34765;SDS011;20984;43.508;1.504;2022-12-24T12:36:11;7.22;;;4.45;;
34765;SDS011;20984;43.508;1.504;2022-12-24T12:38:41;5.20;;;3.83;;
34765;SDS011;20984;43.508;1.504;2022-12-24T12:47:27;5.90;;;4.03;;
34765;SDS011;20984;43.508;1.504;2022-12-24T12:56:00;6.88;;;3.35;;
34765;SDS011;20984;43.508;1.504;2022-12-24T12:58:51;6.93;;;3.15;;
34765;SDS011;20984;43.508;1.504;2022-12-24T13:07:17;8.88;;;3.72;;
34765;SDS011;20984;43.508;1.504;2022-12-24T13:13:08;3.90;;;3.35;;
34765;SDS011;20984;43.508;1.504;2022-12-24T13:21:00;5.43;;;2.70;;
34765;SDS011;20984;43.508;1.504;2022-12-24T13:23:26;5.50;;;2.75;;
34765;SDS011;20984;43.508;1.504;2022-12-24T13:25:53;4.95;;;3.20;;
34765;SDS011;20984;43.508;1.504;2022-12-24T13:36:08;7.32;;;3.45;;
34765;SDS011;20984;43.508;1.504;2022-12-24T13:38:47;6.75;;;3.42;;
34765;SDS011;20984;43.508;1.504;2022-12-24T13:52:05;3.80;;;3.10;;
34765;SDS011;20984;43.508;1.504;2022-12-24T13:54:34;6.97;;;2.85;;
34765;SDS011;20984;43.508;1.504;2022-12-24T13:59:52;4.95;;;3.03;;
34765;SDS011;20984;43.508;1.504;2022-12-24T14:02:26;4.10;;;2.90;;
34765;SDS011;20984;43.508;1.504;2022-12-24T14:04:58;5.15;;;3.00;;
34765;SDS011;20984;43.508;1.504;2022-12-24T14:07:27;8.68;;;3.90;;
34765;SDS011;20984;43.508;1.504;2022-12-24T14:09:53;6.63;;;3.13;;
34765;SDS011;20984;43.508;1.504;2022-12-24T14:18:28;7.28;;;2.90;;
34765;SDS011;20984;43.508;1.504;2022-12-24T14:21:02;5.22;;;2.85;;
34765;SDS011;20984;43.508;1.504;2022-12-24T14:23:35;5.57;;;3.38;;
34765;SDS011;20984;43.508;1.504;2022-12-24T14:26:19;5.43;;;3.25;;
34765;SDS011;20984;43.508;1.504;2022-12-24T14:28:53;9.57;;;3.40;;
34765;SDS011;20984;43.508;1.504;2022-12-24T14:31:22;4.45;;;3.28;;
34765;SDS011;20984;43.508;1.504;2022-12-24T14:33:48;7.28;;;4.20;;
34765;SDS011;20984;43.508;1.504;2022-12-24T14:36:15;3.55;;;3.00;;
34765;SDS011;20984;43.508;1.504;2022-12-24T14:38:46;4.68;;;3.30;;
34765;SDS011;20984;43.508;1.504;2022-12-24T14:42:15;6.22;;;4.00;;
34765;SDS011;20984;43.508;1.504;2022-12-24T14:44:20;9.82;;;3.53;;
34765;SDS011;20984;43.508;1.504;2022-12-24T14:47:27;5.22;;;3.28;;
34765;SDS011;20984;43.508;1.504;2022-12-24T14:50:07;4.38;;;2.88;;
34765;SDS011;20984;43.508;1.504;2022-12-24T14:52:59;6.00;;;3.38;;
34765;SDS011;20984;43.508;1.504;2022-12-24T14:55:40;4.10;;;3.20;;
34765;SDS011;20984;43.508;1.504;2022-12-24T15:01:16;5.05;;;3.28;;
34765;SDS011;20984;43.508;1.504;2022-12-24T15:04:00;5.72;;;3.85;;
34765;SDS011;20984;43.508;1.504;2022-12-24T15:06:26;7.75;;;4.22;;
34765;SDS011;20984;43.508;1.504;2022-12-24T15:08:53;5.45;;;3.05;;
34765;SDS011;20984;43.508;1.504;2022-12-24T15:11:20;5.75;;;3.45;;
34765;SDS011;20984;43.508;1.504;2022-12-24T15:13:48;6.72;;;3.28;;
34765;SDS011;20984;43.508;1.504;2022-12-24T15:16:24;6.05;;;3.83;;
34765;SDS011;20984;43.508;1.504;2022-12-24T15:23:52;7.55;;;3.80;;
34765;SDS011;20984;43.508;1.504;2022-12-24T15:28:49;7.45;;;4.03;;
34765;SDS011;20984;43.508;1.504;2022-12-24T15:31:16;7.78;;;4.32;;
34765;SDS011;20984;43.508;1.504;2022-12-24T15:33:46;8.45;;;4.00;;
34765;SDS011;20984;43.508;1.504;2022-12-24T15:36:14;6.10;;;3.70;;
34765;SDS011;20984;43.508;1.504;2022-12-24T15:38:42;7.32;;;4.65;;
34765;SDS011;20984;43.508;1.504;2022-12-24T15:41:15;10.32;;;4.00;;
34765;SDS011;20984;43.508;1.504;2022-12-24T15:43:47;8.30;;;3.97;;
34765;SDS011;20984;43.508;1.504;2022-12-24T15:46:18;10.15;;;4.40;;
34765;SDS011;20984;43.508;1.504;2022-12-24T15:48:49;9.10;;;4.38;;
34765;SDS011;20984;43.508;1.504;2022-12-24T15:51:22;12.07;;;3.97;;
34765;SDS011;20984;43.508;1.504;2022-12-24T15:53:56;8.45;;;3.58;;
34765;SDS011;20984;43.508;1.504;2022-12-24T15:56:27;5.68;;;3.70;;
34765;SDS011;20984;43.508;1.504;2022-12-24T15:59:11;6.50;;;4.20;;
34765;SDS011;20984;43.508;1.504;2022-12-24T16:01:43;6.90;;;3.85;;
34765;SDS011;20984;43.508;1.504;2022-12-24T16:04:15;8.85;;;4.60;;
34765;SDS011;20984;43.508;1.504;2022-12-24T16:07:01;6.47;;;5.05;;
34765;SDS011;20984;43.508;1.504;2022-12-24T16:09:49;8.10;;;4.20;;
34765;SDS011;20984;43.508;1.504;2022-12-24T16:12:19;5.15;;;4.30;;
34765;SDS011;20984;43.508;1.504;2022-12-24T16:14:56;7.85;;;6.32;;
34765;SDS011;20984;43.508;1.504;2022-12-24T16:17:27;5.40;;;3.80;;
34765;SDS011;20984;43.508;1.504;2022-12-24T16:19:56;5.68;;;4.15;;
34765;SDS011;20984;43.508;1.504;2022-12-24T16:22:27;10.18;;;5.15;;
34765;SDS011;20984;43.508;1.504;2022-12-24T16:24:58;8.85;;;4.63;;
34765;SDS011;20984;43.508;1.504;2022-12-24T16:27:45;6.47;;;4.30;;
34765;SDS011;20984;43.508;1.504;2022-12-24T16:30:11;24.52;;;15.95;;
34765;SDS011;20984;43.508;1.504;2022-12-24T16:32:37;5.65;;;4.40;;
34765;SDS011;20984;43.508;1.504;2022-12-24T16:35:06;7.78;;;6.97;;
34765;SDS011;20984;43.508;1.504;2022-12-24T16:37:41;8.10;;;5.07;;
34765;SDS011;20984;43.508;1.504;2022-12-24T16:40:12;6.47;;;4.05;;
34765;SDS011;20984;43.508;1.504;2022-12-24T16:42:39;5.82;;;4.70;;
34765;SDS011;20984;43.508;1.504;2022-12-24T16:45:23;6.55;;;4.50;;
34765;SDS011;20984;43.508;1.504;2022-12-24T16:47:49;6.90;;;4.63;;
34765;SDS011;20984;43.508;1.504;2022-12-24T16:50:15;6.85;;;4.68;;
34765;SDS011;20984;43.508;1.504;2022-12-24T16:52:42;7.38;;;5.30;;
34765;SDS011;20984;43.508;1.504;2022-12-24T16:55:08;12.45;;;6.55;;
34765;SDS011;20984;43.508;1.504;2022-12-24T16:57:38;7.03;;;5.05;;